sensor_id;sensor_type;location;lat;lon;timestamp;temperature;humidity
70421;SHT31;57848;51.938;15.520;2022-07-29T00:00:22;17.72;46.42
70421;SHT31;57848;51.938;15.520;2022-07-29T00:02:47;17.73;46.44
70421;SHT31;57848;51.938;15.520;2022-07-29T00:05:12;17.70;46.68
70421;SHT31;57848;51.938;15.520;2022-07-29T00:07:39;17.70;46.64
70421;SHT31;57848;51.938;15.520;2022-07-29T00:10:04;17.67;47.12
70421;SHT31;57848;51.938;15.520;2022-07-29T00:12:30;17.70;46.94
70421;SHT31;57848;51.938;15.520;2022-07-29T00:14:56;17.69;46.86
70421;SHT31;57848;51.938;15.520;2022-07-29T00:17:22;17.73;46.85
70421;SHT31;57848;51.938;15.520;2022-07-29T00:19:48;17.66;46.82
70421;SHT31;57848;51.938;15.520;2022-07-29T00:22:13;17.70;47.01
70421;SHT31;57848;51.938;15.520;2022-07-29T00:24:38;17.69;46.85
70421;SHT31;57848;51.938;15.520;2022-07-29T00:27:04;17.70;46.74
70421;SHT31;57848;51.938;15.520;2022-07-29T00:29:29;17.65;46.88
70421;SHT31;57848;51.938;15.520;2022-07-29T00:31:54;17.67;46.75
70421;SHT31;57848;51.938;15.520;2022-07-29T00:34:20;17.69;46.74
70421;SHT31;57848;51.938;15.520;2022-07-29T00:37:11;17.66;46.73
70421;SHT31;57848;51.938;15.520;2022-07-29T00:39:36;17.73;46.47
70421;SHT31;57848;51.938;15.520;2022-07-29T00:42:05;17.72;46.70
70421;SHT31;57848;51.938;15.520;2022-07-29T00:44:30;17.66;46.89
70421;SHT31;57848;51.938;15.520;2022-07-29T00:46:56;17.65;46.87
70421;SHT31;57848;51.938;15.520;2022-07-29T00:49:21;17.69;47.10
70421;SHT31;57848;51.938;15.520;2022-07-29T00:51:48;17.66;47.09
70421;SHT31;57848;51.938;15.520;2022-07-29T00:54:14;17.63;47.32
70421;SHT31;57848;51.938;15.520;2022-07-29T00:56:39;17.62;47.39
70421;SHT31;57848;51.938;15.520;2022-07-29T00:59:04;17.52;47.55
70421;SHT31;57848;51.938;15.520;2022-07-29T01:01:30;17.53;47.47
70421;SHT31;57848;51.938;15.520;2022-07-29T01:03:55;17.62;47.07
70421;SHT31;57848;51.938;15.520;2022-07-29T01:06:20;17.67;47.05
70421;SHT31;57848;51.938;15.520;2022-07-29T01:08:47;17.70;46.96
70421;SHT31;57848;51.938;15.520;2022-07-29T01:11:15;17.75;47.05
70421;SHT31;57848;51.938;15.520;2022-07-29T01:13:42;17.76;47.16
70421;SHT31;57848;51.938;15.520;2022-07-29T01:16:17;17.70;47.31
70421;SHT31;57848;51.938;15.520;2022-07-29T01:18:46;17.67;47.36
70421;SHT31;57848;51.938;15.520;2022-07-29T01:21:39;17.63;47.57
70421;SHT31;57848;51.938;15.520;2022-07-29T01:24:27;17.67;47.60
70421;SHT31;57848;51.938;15.520;2022-07-29T01:27:26;17.67;47.70
70421;SHT31;57848;51.938;15.520;2022-07-29T01:29:58;17.62;47.77
70421;SHT31;57848;51.938;15.520;2022-07-29T01:32:29;17.59;47.92
70421;SHT31;57848;51.938;15.520;2022-07-29T01:37:45;17.49;48.44
70421;SHT31;57848;51.938;15.520;2022-07-29T01:40:19;17.49;48.40
70421;SHT31;57848;51.938;15.520;2022-07-29T01:42:50;17.46;48.79
70421;SHT31;57848;51.938;15.520;2022-07-29T01:45:43;17.36;48.92
70421;SHT31;57848;51.938;15.520;2022-07-29T01:48:20;17.32;49.26
70421;SHT31;57848;51.938;15.520;2022-07-29T01:50:49;17.25;49.41
70421;SHT31;57848;51.938;15.520;2022-07-29T01:53:23;17.25;49.60
70421;SHT31;57848;51.938;15.520;2022-07-29T01:55:51;17.22;49.76
70421;SHT31;57848;51.938;15.520;2022-07-29T01:58:18;17.15;50.00
70421;SHT31;57848;51.938;15.520;2022-07-29T02:00:45;17.12;50.07
70421;SHT31;57848;51.938;15.520;2022-07-29T02:03:12;17.08;50.14
70421;SHT31;57848;51.938;15.520;2022-07-29T02:05:41;16.97;50.72
70421;SHT31;57848;51.938;15.520;2022-07-29T02:08:08;16.88;50.80
70421;SHT31;57848;51.938;15.520;2022-07-29T02:10:36;16.90;50.85
70421;SHT31;57848;51.938;15.520;2022-07-29T02:13:02;16.88;51.07
70421;SHT31;57848;51.938;15.520;2022-07-29T02:15:32;16.83;51.17
70421;SHT31;57848;51.938;15.520;2022-07-29T02:18:11;16.81;51.33
70421;SHT31;57848;51.938;15.520;2022-07-29T02:20:39;16.76;51.49
70421;SHT31;57848;51.938;15.520;2022-07-29T02:23:06;16.69;51.79
70421;SHT31;57848;51.938;15.520;2022-07-29T02:25:32;16.61;52.02
70421;SHT31;57848;51.938;15.520;2022-07-29T02:27:58;16.69;51.91
70421;SHT31;57848;51.938;15.520;2022-07-29T02:30:27;16.64;52.05
70421;SHT31;57848;51.938;15.520;2022-07-29T02:32:54;16.64;52.23
70421;SHT31;57848;51.938;15.520;2022-07-29T02:35:21;16.64;52.25
70421;SHT31;57848;51.938;15.520;2022-07-29T02:37:47;16.71;52.22
70421;SHT31;57848;51.938;15.520;2022-07-29T02:40:34;16.61;52.62
70421;SHT31;57848;51.938;15.520;2022-07-29T02:43:02;16.60;52.69
70421;SHT31;57848;51.938;15.520;2022-07-29T02:45:29;16.57;52.77
70421;SHT31;57848;51.938;15.520;2022-07-29T02:47:56;16.59;52.72
70421;SHT31;57848;51.938;15.520;2022-07-29T02:50:30;16.52;53.06
70421;SHT31;57848;51.938;15.520;2022-07-29T02:53:02;16.52;53.27
70421;SHT31;57848;51.938;15.520;2022-07-29T02:55:46;16.55;53.22
70421;SHT31;57848;51.938;15.520;2022-07-29T02:58:33;16.56;53.40
70421;SHT31;57848;51.938;15.520;2022-07-29T03:01:04;16.53;53.68
70421;SHT31;57848;51.938;15.520;2022-07-29T03:03:36;16.50;53.76
70421;SHT31;57848;51.938;15.520;2022-07-29T03:06:03;16.55;53.72
70421;SHT31;57848;51.938;15.520;2022-07-29T03:08:29;16.47;53.95
70421;SHT31;57848;51.938;15.520;2022-07-29T03:10:56;16.43;54.17
70421;SHT31;57848;51.938;15.520;2022-07-29T03:13:22;16.45;54.35
70421;SHT31;57848;51.938;15.520;2022-07-29T03:15:48;16.43;54.47
70421;SHT31;57848;51.938;15.520;2022-07-29T03:18:14;16.45;54.53
70421;SHT31;57848;51.938;15.520;2022-07-29T03:20:40;16.36;54.64
70421;SHT31;57848;51.938;15.520;2022-07-29T03:23:06;16.39;54.49
70421;SHT31;57848;51.938;15.520;2022-07-29T03:25:31;16.33;54.60
70421;SHT31;57848;51.938;15.520;2022-07-29T03:27:57;16.23;54.82
70421;SHT31;57848;51.938;15.520;2022-07-29T03:30:23;16.13;55.12
70421;SHT31;57848;51.938;15.520;2022-07-29T03:32:49;16.09;55.41
70421;SHT31;57848;51.938;15.520;2022-07-29T03:35:15;16.02;55.63
70421;SHT31;57848;51.938;15.520;2022-07-29T03:37:44;16.09;55.50
70421;SHT31;57848;51.938;15.520;2022-07-29T03:40:11;15.99;55.85
70421;SHT31;57848;51.938;15.520;2022-07-29T03:42:40;16.05;55.84
70421;SHT31;57848;51.938;15.520;2022-07-29T03:45:10;16.08;56.01
70421;SHT31;57848;51.938;15.520;2022-07-29T03:47:38;16.08;55.99
70421;SHT31;57848;51.938;15.520;2022-07-29T03:50:06;16.08;56.01
70421;SHT31;57848;51.938;15.520;2022-07-29T03:52:33;16.13;55.94
70421;SHT31;57848;51.938;15.520;2022-07-29T03:54:59;16.19;55.82
70421;SHT31;57848;51.938;15.520;2022-07-29T03:57:27;16.10;56.06
70421;SHT31;57848;51.938;15.520;2022-07-29T03:59:53;16.16;55.88
70421;SHT31;57848;51.938;15.520;2022-07-29T04:02:19;16.10;56.31
70421;SHT31;57848;51.938;15.520;2022-07-29T04:04:46;16.15;56.30
70421;SHT31;57848;51.938;15.520;2022-07-29T04:07:12;16.13;56.38
70421;SHT31;57848;51.938;15.520;2022-07-29T04:09:37;16.13;56.52
70421;SHT31;57848;51.938;15.520;2022-07-29T04:12:03;16.25;56.37
70421;SHT31;57848;51.938;15.520;2022-07-29T04:14:29;16.18;56.58
70421;SHT31;57848;51.938;15.520;2022-07-29T04:16:54;16.23;56.57
70421;SHT31;57848;51.938;15.520;2022-07-29T04:19:20;16.28;56.72
70421;SHT31;57848;51.938;15.520;2022-07-29T04:21:45;16.32;56.59
70421;SHT31;57848;51.938;15.520;2022-07-29T04:24:10;16.40;56.60
70421;SHT31;57848;51.938;15.520;2022-07-29T04:26:36;16.45;56.48
70421;SHT31;57848;51.938;15.520;2022-07-29T04:29:01;16.55;56.30
70421;SHT31;57848;51.938;15.520;2022-07-29T04:31:26;16.57;56.58
70421;SHT31;57848;51.938;15.520;2022-07-29T04:33:52;16.63;56.34
70421;SHT31;57848;51.938;15.520;2022-07-29T04:36:17;16.67;56.17
70421;SHT31;57848;51.938;15.520;2022-07-29T04:38:43;16.78;56.09
70421;SHT31;57848;51.938;15.520;2022-07-29T04:41:08;16.77;56.33
70421;SHT31;57848;51.938;15.520;2022-07-29T04:43:34;16.88;56.06
70421;SHT31;57848;51.938;15.520;2022-07-29T04:46:00;16.92;56.14
70421;SHT31;57848;51.938;15.520;2022-07-29T04:48:25;17.03;56.17
70421;SHT31;57848;51.938;15.520;2022-07-29T04:50:51;17.10;55.68
70421;SHT31;57848;51.938;15.520;2022-07-29T04:53:17;17.19;55.31
70421;SHT31;57848;51.938;15.520;2022-07-29T04:55:42;17.21;55.63
70421;SHT31;57848;51.938;15.520;2022-07-29T04:58:07;17.29;55.24
70421;SHT31;57848;51.938;15.520;2022-07-29T05:00:33;17.31;54.95
70421;SHT31;57848;51.938;15.520;2022-07-29T05:02:58;17.39;55.02
70421;SHT31;57848;51.938;15.520;2022-07-29T05:05:24;17.46;54.55
70421;SHT31;57848;51.938;15.520;2022-07-29T05:07:49;17.61;54.22
70421;SHT31;57848;51.938;15.520;2022-07-29T05:10:14;17.67;54.24
70421;SHT31;57848;51.938;15.520;2022-07-29T05:12:40;17.69;54.28
70421;SHT31;57848;51.938;15.520;2022-07-29T05:15:05;17.80;53.95
70421;SHT31;57848;51.938;15.520;2022-07-29T05:17:31;17.87;53.57
70421;SHT31;57848;51.938;15.520;2022-07-29T05:19:56;17.83;53.63
70421;SHT31;57848;51.938;15.520;2022-07-29T05:22:22;17.91;53.70
70421;SHT31;57848;51.938;15.520;2022-07-29T05:24:47;18.04;53.27
70421;SHT31;57848;51.938;15.520;2022-07-29T05:27:13;18.06;53.46
70421;SHT31;57848;51.938;15.520;2022-07-29T05:29:38;18.00;53.26
70421;SHT31;57848;51.938;15.520;2022-07-29T05:32:04;18.01;53.60
70421;SHT31;57848;51.938;15.520;2022-07-29T05:34:30;18.00;53.68
70421;SHT31;57848;51.938;15.520;2022-07-29T05:36:56;17.90;53.72
70421;SHT31;57848;51.938;15.520;2022-07-29T05:39:22;17.86;53.88
70421;SHT31;57848;51.938;15.520;2022-07-29T05:41:47;17.90;54.04
70421;SHT31;57848;51.938;15.520;2022-07-29T05:44:13;17.69;54.55
70421;SHT31;57848;51.938;15.520;2022-07-29T05:46:39;17.77;54.52
70421;SHT31;57848;51.938;15.520;2022-07-29T05:49:04;17.73;54.86
70421;SHT31;57848;51.938;15.520;2022-07-29T05:51:34;17.86;54.37
70421;SHT31;57848;51.938;15.520;2022-07-29T05:54:00;17.73;54.95
70421;SHT31;57848;51.938;15.520;2022-07-29T05:56:25;17.73;54.66
70421;SHT31;57848;51.938;15.520;2022-07-29T05:58:51;17.75;55.01
70421;SHT31;57848;51.938;15.520;2022-07-29T06:01:17;17.73;54.85
70421;SHT31;57848;51.938;15.520;2022-07-29T06:03:42;17.67;55.20
70421;SHT31;57848;51.938;15.520;2022-07-29T06:06:08;17.65;54.90
70421;SHT31;57848;51.938;15.520;2022-07-29T06:08:34;17.62;55.32
70421;SHT31;57848;51.938;15.520;2022-07-29T06:11:00;17.61;55.66
70421;SHT31;57848;51.938;15.520;2022-07-29T06:13:26;17.66;55.25
70421;SHT31;57848;51.938;15.520;2022-07-29T06:15:51;17.61;55.59
70421;SHT31;57848;51.938;15.520;2022-07-29T06:18:17;17.66;55.72
70421;SHT31;57848;51.938;15.520;2022-07-29T06:20:42;17.73;55.37
70421;SHT31;57848;51.938;15.520;2022-07-29T06:23:07;17.85;55.23
70421;SHT31;57848;51.938;15.520;2022-07-29T06:25:33;17.87;55.25
70421;SHT31;57848;51.938;15.520;2022-07-29T06:28:00;17.85;55.35
70421;SHT31;57848;51.938;15.520;2022-07-29T06:30:26;18.06;55.11
70421;SHT31;57848;51.938;15.520;2022-07-29T06:32:51;18.11;55.09
70421;SHT31;57848;51.938;15.520;2022-07-29T06:35:17;18.21;55.03
70421;SHT31;57848;51.938;15.520;2022-07-29T06:37:42;18.31;54.82
70421;SHT31;57848;51.938;15.520;2022-07-29T06:40:08;18.49;54.52
70421;SHT31;57848;51.938;15.520;2022-07-29T06:42:52;18.59;54.24
70421;SHT31;57848;51.938;15.520;2022-07-29T06:45:17;18.71;53.96
70421;SHT31;57848;51.938;15.520;2022-07-29T06:47:43;18.73;54.29
70421;SHT31;57848;51.938;15.520;2022-07-29T06:50:08;18.82;54.13
70421;SHT31;57848;51.938;15.520;2022-07-29T06:52:38;18.99;54.16
70421;SHT31;57848;51.938;15.520;2022-07-29T06:55:04;19.00;53.70
70421;SHT31;57848;51.938;15.520;2022-07-29T06:57:29;19.12;53.62
70421;SHT31;57848;51.938;15.520;2022-07-29T06:59:58;19.23;53.68
70421;SHT31;57848;51.938;15.520;2022-07-29T07:02:23;19.30;53.22
70421;SHT31;57848;51.938;15.520;2022-07-29T07:04:48;19.44;53.55
70421;SHT31;57848;51.938;15.520;2022-07-29T07:07:14;19.51;53.57
70421;SHT31;57848;51.938;15.520;2022-07-29T07:09:39;19.54;53.39
70421;SHT31;57848;51.938;15.520;2022-07-29T07:12:05;19.58;53.38
70421;SHT31;57848;51.938;15.520;2022-07-29T07:14:31;19.71;53.02
70421;SHT31;57848;51.938;15.520;2022-07-29T07:16:56;19.74;53.19
70421;SHT31;57848;51.938;15.520;2022-07-29T07:19:22;19.77;52.94
70421;SHT31;57848;51.938;15.520;2022-07-29T07:21:47;19.94;53.25
70421;SHT31;57848;51.938;15.520;2022-07-29T07:24:12;19.98;52.49
70421;SHT31;57848;51.938;15.520;2022-07-29T07:26:38;20.18;52.22
70421;SHT31;57848;51.938;15.520;2022-07-29T07:29:05;20.19;52.19
70421;SHT31;57848;51.938;15.520;2022-07-29T07:31:30;20.43;52.01
70421;SHT31;57848;51.938;15.520;2022-07-29T07:33:55;20.53;51.68
70421;SHT31;57848;51.938;15.520;2022-07-29T07:36:21;20.57;51.38
70421;SHT31;57848;51.938;15.520;2022-07-29T07:38:47;20.83;51.39
70421;SHT31;57848;51.938;15.520;2022-07-29T07:41:12;21.04;50.67
70421;SHT31;57848;51.938;15.520;2022-07-29T07:43:38;21.12;50.09
70421;SHT31;57848;51.938;15.520;2022-07-29T07:46:03;21.21;50.41
70421;SHT31;57848;51.938;15.520;2022-07-29T07:48:29;21.51;49.66
70421;SHT31;57848;51.938;15.520;2022-07-29T07:50:54;21.46;50.01
70421;SHT31;57848;51.938;15.520;2022-07-29T07:53:19;21.71;50.12
70421;SHT31;57848;51.938;15.520;2022-07-29T07:55:45;21.81;48.85
70421;SHT31;57848;51.938;15.520;2022-07-29T07:58:10;21.99;48.72
70421;SHT31;57848;51.938;15.520;2022-07-29T08:00:36;22.14;48.13
70421;SHT31;57848;51.938;15.520;2022-07-29T08:03:01;22.12;48.05
70421;SHT31;57848;51.938;15.520;2022-07-29T08:05:27;22.17;47.94
70421;SHT31;57848;51.938;15.520;2022-07-29T08:07:53;22.24;47.69
70421;SHT31;57848;51.938;15.520;2022-07-29T08:10:19;22.41;46.92
70421;SHT31;57848;51.938;15.520;2022-07-29T08:13:08;22.65;47.39
70421;SHT31;57848;51.938;15.520;2022-07-29T08:15:34;22.95;46.91
70421;SHT31;57848;51.938;15.520;2022-07-29T08:18:00;23.24;46.39
70421;SHT31;57848;51.938;15.520;2022-07-29T08:20:25;23.33;44.95
70421;SHT31;57848;51.938;15.520;2022-07-29T08:22:52;23.30;45.11
70421;SHT31;57848;51.938;15.520;2022-07-29T08:25:18;23.59;45.35
70421;SHT31;57848;51.938;15.520;2022-07-29T08:27:48;23.45;44.28
70421;SHT31;57848;51.938;15.520;2022-07-29T08:30:14;23.53;44.01
70421;SHT31;57848;51.938;15.520;2022-07-29T08:32:39;23.42;44.28
70421;SHT31;57848;51.938;15.520;2022-07-29T08:35:05;23.43;44.23
70421;SHT31;57848;51.938;15.520;2022-07-29T08:37:31;23.63;44.36
70421;SHT31;57848;51.938;15.520;2022-07-29T08:39:56;23.63;44.13
70421;SHT31;57848;51.938;15.520;2022-07-29T08:42:21;23.74;44.17
70421;SHT31;57848;51.938;15.520;2022-07-29T08:44:47;23.69;43.35
70421;SHT31;57848;51.938;15.520;2022-07-29T08:47:14;23.71;43.48
70421;SHT31;57848;51.938;15.520;2022-07-29T08:49:39;23.97;44.13
70421;SHT31;57848;51.938;15.520;2022-07-29T08:52:06;24.05;43.26
70421;SHT31;57848;51.938;15.520;2022-07-29T08:54:31;24.29;42.64
70421;SHT31;57848;51.938;15.520;2022-07-29T08:56:58;24.48;42.14
70421;SHT31;57848;51.938;15.520;2022-07-29T08:59:25;24.43;42.74
70421;SHT31;57848;51.938;15.520;2022-07-29T09:01:52;24.45;41.94
70421;SHT31;57848;51.938;15.520;2022-07-29T09:04:19;24.59;41.80
70421;SHT31;57848;51.938;15.520;2022-07-29T09:06:48;24.51;41.89
70421;SHT31;57848;51.938;15.520;2022-07-29T09:09:14;24.55;41.56
70421;SHT31;57848;51.938;15.520;2022-07-29T09:11:41;24.48;41.93
70421;SHT31;57848;51.938;15.520;2022-07-29T09:14:06;24.39;41.54
70421;SHT31;57848;51.938;15.520;2022-07-29T09:16:54;24.45;41.50
70421;SHT31;57848;51.938;15.520;2022-07-29T09:21:49;24.75;41.77
70421;SHT31;57848;51.938;15.520;2022-07-29T09:24:39;24.96;41.62
70421;SHT31;57848;51.938;15.520;2022-07-29T09:27:23;24.91;40.69
70421;SHT31;57848;51.938;15.520;2022-07-29T09:30:02;25.11;40.58
70421;SHT31;57848;51.938;15.520;2022-07-29T09:32:29;25.17;41.03
70421;SHT31;57848;51.938;15.520;2022-07-29T09:35:14;25.27;40.09
70421;SHT31;57848;51.938;15.520;2022-07-29T09:37:40;25.54;40.72
70421;SHT31;57848;51.938;15.520;2022-07-29T09:40:13;25.44;39.56
70421;SHT31;57848;51.938;15.520;2022-07-29T09:42:39;25.42;39.75
70421;SHT31;57848;51.938;15.520;2022-07-29T09:45:05;25.41;39.86
70421;SHT31;57848;51.938;15.520;2022-07-29T09:47:44;25.55;39.82
70421;SHT31;57848;51.938;15.520;2022-07-29T09:50:11;25.47;39.80
70421;SHT31;57848;51.938;15.520;2022-07-29T09:52:50;25.69;39.21
70421;SHT31;57848;51.938;15.520;2022-07-29T09:55:16;25.85;38.94
70421;SHT31;57848;51.938;15.520;2022-07-29T09:57:42;26.12;39.18
70421;SHT31;57848;51.938;15.520;2022-07-29T10:02:40;26.30;38.63
70421;SHT31;57848;51.938;15.520;2022-07-29T10:05:16;26.06;39.09
70421;SHT31;57848;51.938;15.520;2022-07-29T10:07:47;26.29;39.68
70421;SHT31;57848;51.938;15.520;2022-07-29T10:10:34;26.73;37.92
70421;SHT31;57848;51.938;15.520;2022-07-29T10:13:02;26.78;37.48
70421;SHT31;57848;51.938;15.520;2022-07-29T10:15:37;27.16;37.22
70421;SHT31;57848;51.938;15.520;2022-07-29T10:18:06;27.59;36.86
70421;SHT31;57848;51.938;15.520;2022-07-29T10:20:32;27.73;35.69
70421;SHT31;57848;51.938;15.520;2022-07-29T10:22:58;27.67;35.95
70421;SHT31;57848;51.938;15.520;2022-07-29T10:25:24;27.84;35.88
70421;SHT31;57848;51.938;15.520;2022-07-29T10:27:51;27.79;36.59
70421;SHT31;57848;51.938;15.520;2022-07-29T10:30:17;27.67;36.79
70421;SHT31;57848;51.938;15.520;2022-07-29T10:35:43;27.36;36.51
70421;SHT31;57848;51.938;15.520;2022-07-29T10:46:34;27.18;36.29
70421;SHT31;57848;51.938;15.520;2022-07-29T10:49:04;27.41;36.18
70421;SHT31;57848;51.938;15.520;2022-07-29T10:54:16;27.45;35.45
70421;SHT31;57848;51.938;15.520;2022-07-29T10:56:41;27.38;35.50
70421;SHT31;57848;51.938;15.520;2022-07-29T11:01:52;27.69;36.22
70421;SHT31;57848;51.938;15.520;2022-07-29T11:07:08;28.71;35.06
70421;SHT31;57848;51.938;15.520;2022-07-29T11:09:33;28.49;33.83
70421;SHT31;57848;51.938;15.520;2022-07-29T11:11:59;28.10;34.40
70421;SHT31;57848;51.938;15.520;2022-07-29T11:17:17;28.37;34.38
70421;SHT31;57848;51.938;15.520;2022-07-29T11:19:43;28.52;33.84
70421;SHT31;57848;51.938;15.520;2022-07-29T11:22:10;28.83;34.33
70421;SHT31;57848;51.938;15.520;2022-07-29T11:24:36;28.99;33.88
70421;SHT31;57848;51.938;15.520;2022-07-29T11:27:13;29.29;33.21
70421;SHT31;57848;51.938;15.520;2022-07-29T11:29:47;29.12;32.60
70421;SHT31;57848;51.938;15.520;2022-07-29T11:32:14;29.33;32.64
70421;SHT31;57848;51.938;15.520;2022-07-29T11:34:41;29.70;32.84
70421;SHT31;57848;51.938;15.520;2022-07-29T11:40:07;29.84;31.62
70421;SHT31;57848;51.938;15.520;2022-07-29T11:45:15;29.47;31.20
70421;SHT31;57848;51.938;15.520;2022-07-29T11:47:50;31.27;29.01
70421;SHT31;57848;51.938;15.520;2022-07-29T11:50:36;31.63;28.72
70421;SHT31;57848;51.938;15.520;2022-07-29T11:53:05;31.43;28.99
70421;SHT31;57848;51.938;15.520;2022-07-29T11:55:37;31.61;28.74
70421;SHT31;57848;51.938;15.520;2022-07-29T11:58:03;31.17;28.40
70421;SHT31;57848;51.938;15.520;2022-07-29T12:02:56;31.27;29.11
70421;SHT31;57848;51.938;15.520;2022-07-29T12:05:34;31.80;27.51
70421;SHT31;57848;51.938;15.520;2022-07-29T12:08:11;32.03;27.63
70421;SHT31;57848;51.938;15.520;2022-07-29T12:10:37;33.18;26.35
70421;SHT31;57848;51.938;15.520;2022-07-29T12:13:03;33.11;26.73
70421;SHT31;57848;51.938;15.520;2022-07-29T12:15:29;33.11;26.00
70421;SHT31;57848;51.938;15.520;2022-07-29T12:17:54;31.48;27.33
70421;SHT31;57848;51.938;15.520;2022-07-29T12:20:27;31.76;26.83
70421;SHT31;57848;51.938;15.520;2022-07-29T12:22:53;32.16;27.65
70421;SHT31;57848;51.938;15.520;2022-07-29T12:25:20;32.36;26.85
70421;SHT31;57848;51.938;15.520;2022-07-29T12:27:45;32.21;26.50
70421;SHT31;57848;51.938;15.520;2022-07-29T12:30:14;32.71;26.90
70421;SHT31;57848;51.938;15.520;2022-07-29T12:32:45;32.67;26.89
70421;SHT31;57848;51.938;15.520;2022-07-29T12:35:14;33.41;26.43
70421;SHT31;57848;51.938;15.520;2022-07-29T12:37:42;33.08;25.86
70421;SHT31;57848;51.938;15.520;2022-07-29T12:40:11;32.89;26.53
70421;SHT31;57848;51.938;15.520;2022-07-29T12:42:38;32.89;26.54
70421;SHT31;57848;51.938;15.520;2022-07-29T12:45:04;33.12;26.11
70421;SHT31;57848;51.938;15.520;2022-07-29T12:47:30;33.16;26.11
70421;SHT31;57848;51.938;15.520;2022-07-29T12:50:13;33.37;25.74
70421;SHT31;57848;51.938;15.520;2022-07-29T12:52:43;33.49;25.19
70421;SHT31;57848;51.938;15.520;2022-07-29T12:55:09;33.81;25.19
70421;SHT31;57848;51.938;15.520;2022-07-29T12:57:45;33.55;25.23
70421;SHT31;57848;51.938;15.520;2022-07-29T13:00:12;32.97;26.81
70421;SHT31;57848;51.938;15.520;2022-07-29T13:02:40;33.55;25.57
70421;SHT31;57848;51.938;15.520;2022-07-29T13:05:07;33.76;25.73
70421;SHT31;57848;51.938;15.520;2022-07-29T13:07:38;35.12;24.16
70421;SHT31;57848;51.938;15.520;2022-07-29T13:10:17;35.80;22.26
70421;SHT31;57848;51.938;15.520;2022-07-29T13:13:03;36.14;22.18
70421;SHT31;57848;51.938;15.520;2022-07-29T13:15:29;37.03;21.84
70421;SHT31;57848;51.938;15.520;2022-07-29T13:17:54;37.39;21.15
70421;SHT31;57848;51.938;15.520;2022-07-29T13:20:23;37.26;20.70
70421;SHT31;57848;51.938;15.520;2022-07-29T13:22:49;37.24;21.66
70421;SHT31;57848;51.938;15.520;2022-07-29T13:25:24;36.31;22.06
70421;SHT31;57848;51.938;15.520;2022-07-29T13:27:49;35.46;22.57
70421;SHT31;57848;51.938;15.520;2022-07-29T13:30:15;34.75;22.99
70421;SHT31;57848;51.938;15.520;2022-07-29T13:32:40;33.77;24.06
70421;SHT31;57848;51.938;15.520;2022-07-29T13:35:07;32.81;25.00
70421;SHT31;57848;51.938;15.520;2022-07-29T13:37:34;32.75;25.66
70421;SHT31;57848;51.938;15.520;2022-07-29T13:40:04;33.50;25.13
70421;SHT31;57848;51.938;15.520;2022-07-29T13:42:29;33.86;25.33
70421;SHT31;57848;51.938;15.520;2022-07-29T13:44:55;33.43;25.47
70421;SHT31;57848;51.938;15.520;2022-07-29T13:47:21;33.04;25.24
70421;SHT31;57848;51.938;15.520;2022-07-29T13:49:47;32.89;25.57
70421;SHT31;57848;51.938;15.520;2022-07-29T13:52:13;32.61;25.97
70421;SHT31;57848;51.938;15.520;2022-07-29T13:54:38;32.79;25.55
70421;SHT31;57848;51.938;15.520;2022-07-29T13:57:04;32.74;25.89
70421;SHT31;57848;51.938;15.520;2022-07-29T13:59:30;32.30;25.45
70421;SHT31;57848;51.938;15.520;2022-07-29T14:01:55;32.14;26.67
70421;SHT31;57848;51.938;15.520;2022-07-29T14:04:21;32.30;25.61
70421;SHT31;57848;51.938;15.520;2022-07-29T14:06:48;32.57;25.65
70421;SHT31;57848;51.938;15.520;2022-07-29T14:09:13;32.58;25.72
70421;SHT31;57848;51.938;15.520;2022-07-29T14:11:38;32.51;26.15
70421;SHT31;57848;51.938;15.520;2022-07-29T14:14:05;32.70;25.75
70421;SHT31;57848;51.938;15.520;2022-07-29T14:16:30;32.43;26.27
70421;SHT31;57848;51.938;15.520;2022-07-29T14:18:55;32.20;26.58
70421;SHT31;57848;51.938;15.520;2022-07-29T14:21:21;31.51;27.55
70421;SHT31;57848;51.938;15.520;2022-07-29T14:23:46;31.22;28.09
70421;SHT31;57848;51.938;15.520;2022-07-29T14:26:11;31.30;28.34
70421;SHT31;57848;51.938;15.520;2022-07-29T14:28:37;30.42;28.94
70421;SHT31;57848;51.938;15.520;2022-07-29T14:31:02;30.32;29.15
70421;SHT31;57848;51.938;15.520;2022-07-29T14:33:27;29.84;29.72
70421;SHT31;57848;51.938;15.520;2022-07-29T14:35:52;29.77;29.87
70421;SHT31;57848;51.938;15.520;2022-07-29T14:38:18;29.54;30.06
70421;SHT31;57848;51.938;15.520;2022-07-29T14:40:43;29.38;30.59
70421;SHT31;57848;51.938;15.520;2022-07-29T14:43:09;29.31;31.29
70421;SHT31;57848;51.938;15.520;2022-07-29T14:45:34;29.07;30.99
70421;SHT31;57848;51.938;15.520;2022-07-29T14:48:00;29.16;30.94
70421;SHT31;57848;51.938;15.520;2022-07-29T14:50:25;29.17;30.86
70421;SHT31;57848;51.938;15.520;2022-07-29T14:52:51;29.04;30.87
70421;SHT31;57848;51.938;15.520;2022-07-29T14:55:17;29.03;30.86
70421;SHT31;57848;51.938;15.520;2022-07-29T14:57:42;29.13;30.76
70421;SHT31;57848;51.938;15.520;2022-07-29T15:00:09;29.17;31.34
70421;SHT31;57848;51.938;15.520;2022-07-29T15:02:35;29.09;30.57
70421;SHT31;57848;51.938;15.520;2022-07-29T15:05:00;29.23;30.42
70421;SHT31;57848;51.938;15.520;2022-07-29T15:07:26;29.19;30.75
70421;SHT31;57848;51.938;15.520;2022-07-29T15:09:51;29.35;31.03
70421;SHT31;57848;51.938;15.520;2022-07-29T15:12:18;29.37;31.41
70421;SHT31;57848;51.938;15.520;2022-07-29T15:14:43;29.20;31.32
70421;SHT31;57848;51.938;15.520;2022-07-29T15:17:09;28.83;31.39
70421;SHT31;57848;51.938;15.520;2022-07-29T15:19:34;28.65;31.19
70421;SHT31;57848;51.938;15.520;2022-07-29T15:21:59;28.66;32.07
70421;SHT31;57848;51.938;15.520;2022-07-29T15:24:25;28.64;31.53
70421;SHT31;57848;51.938;15.520;2022-07-29T15:26:50;28.72;31.61
70421;SHT31;57848;51.938;15.520;2022-07-29T15:29:15;28.91;31.20
70421;SHT31;57848;51.938;15.520;2022-07-29T15:31:42;29.10;31.99
70421;SHT31;57848;51.938;15.520;2022-07-29T15:34:07;29.13;31.16
70421;SHT31;57848;51.938;15.520;2022-07-29T15:36:32;29.20;31.72
70421;SHT31;57848;51.938;15.520;2022-07-29T15:38:58;29.30;32.37
70421;SHT31;57848;51.938;15.520;2022-07-29T15:41:23;29.26;31.17
70421;SHT31;57848;51.938;15.520;2022-07-29T15:43:48;29.19;31.01
70421;SHT31;57848;51.938;15.520;2022-07-29T15:46:16;29.02;31.22
70421;SHT31;57848;51.938;15.520;2022-07-29T15:49:02;28.78;31.73
70421;SHT31;57848;51.938;15.520;2022-07-29T15:51:27;28.91;31.61
70421;SHT31;57848;51.938;15.520;2022-07-29T15:53:53;28.89;32.06
70421;SHT31;57848;51.938;15.520;2022-07-29T15:56:18;28.69;31.94